createdAt,value
2022-12-11T00:00:31.195Z,100880.78
2022-12-11T00:03:00.592Z,100880.81
2022-12-11T00:05:28.579Z,100874.03
2022-12-11T00:07:57.412Z,100879.31
2022-12-11T00:10:25.505Z,100871.13
2022-12-11T00:12:53.389Z,100868.50
2022-12-11T00:15:21.391Z,100869.84
2022-12-11T00:17:49.335Z,100860.22
2022-12-11T00:20:18.808Z,100854.78
2022-12-11T00:22:46.661Z,100857.16
2022-12-11T00:25:14.532Z,100861.56
2022-12-11T00:27:42.393Z,100863.50
2022-12-11T00:30:11.400Z,100863.91
2022-12-11T00:32:39.324Z,100862.69
2022-12-11T00:35:07.932Z,100861.78
2022-12-11T00:37:37.492Z,100872.06
2022-12-11T00:40:06.097Z,100868.63
2022-12-11T00:42:33.988Z,100864.81
2022-12-11T00:45:01.875Z,100867.84
2022-12-11T00:47:30.028Z,100863.94
2022-12-11T00:49:57.957Z,100861.34
2022-12-11T00:52:25.894Z,100869.38
2022-12-11T00:54:55.142Z,100857.09
2022-12-11T00:57:23.054Z,100864.59
2022-12-11T00:59:51.048Z,100857.09
2022-12-11T01:02:18.915Z,100859.47
2022-12-11T01:04:46.755Z,100854.19
2022-12-11T01:07:14.645Z,100865.97
2022-12-11T01:10:00.021Z,100861.72
2022-12-11T01:12:29.297Z,100850.22
2022-12-11T01:14:57.155Z,100854.47
2022-12-11T01:17:25.000Z,100866.91
2022-12-11T01:19:55.480Z,100877.09
2022-12-11T01:22:23.500Z,100868.44
2022-12-11T01:24:51.442Z,100869.84
2022-12-11T01:27:19.371Z,100882.97
2022-12-11T01:29:49.541Z,100878.66
2022-12-11T01:32:17.479Z,100875.75
2022-12-11T01:34:45.350Z,100873.63
2022-12-11T01:37:13.275Z,100874.06
2022-12-11T01:39:41.208Z,100871.78
2022-12-11T01:42:18.249Z,100877.09
2022-12-11T01:45:27.260Z,100869.19
2022-12-11T01:48:02.540Z,100865.22
2022-12-11T01:50:34.109Z,100859.69
2022-12-11T01:53:02.725Z,100865.06
2022-12-11T01:55:30.770Z,100872.72
2022-12-11T01:57:59.377Z,100873.44
2022-12-11T02:00:27.298Z,100873.00
2022-12-11T02:02:55.204Z,100885.03
2022-12-11T02:05:24.703Z,100879.88
2022-12-11T02:07:56.496Z,100884.34
2022-12-11T02:10:33.845Z,100873.75
2022-12-11T02:13:06.698Z,100876.09
2022-12-11T02:15:39.021Z,100886.38
2022-12-11T02:18:18.216Z,100884.41
2022-12-11T02:20:54.539Z,100885.25
2022-12-11T02:24:00.630Z,100884.00
2022-12-11T02:27:03.136Z,100881.41
2022-12-11T02:29:38.601Z,100893.72
2022-12-11T02:32:11.884Z,100885.66
2022-12-11T02:34:44.322Z,100882.41
2022-12-11T02:37:17.451Z,100886.63
2022-12-11T02:39:46.315Z,100885.53
2022-12-11T02:42:16.459Z,100873.84
2022-12-11T02:44:47.932Z,100871.28
2022-12-11T02:47:19.268Z,100869.22
2022-12-11T02:49:50.715Z,100871.63
2022-12-11T02:52:24.401Z,100865.50
2022-12-11T02:54:56.649Z,100866.72
2022-12-11T02:57:30.271Z,100864.03
2022-12-11T02:59:59.862Z,100857.94
2022-12-11T03:02:28.390Z,100865.44
2022-12-11T03:04:57.246Z,100871.50
2022-12-11T03:07:29.852Z,100871.13
2022-12-11T03:09:57.782Z,100862.97
2022-12-11T03:12:30.176Z,100873.00
2022-12-11T03:15:03.082Z,100876.22
2022-12-11T03:17:36.766Z,100876.34
2022-12-11T03:20:13.491Z,100876.25
2022-12-11T03:22:48.682Z,100871.63
2022-12-11T03:25:21.877Z,100875.75
2022-12-11T03:27:57.605Z,100871.22
2022-12-11T03:30:29.908Z,100882.63
2022-12-11T03:33:01.480Z,100883.78
2022-12-11T03:35:34.708Z,100879.59
2022-12-11T03:38:04.900Z,100884.03
2022-12-11T03:40:35.897Z,100882.16
2022-12-11T03:43:05.537Z,100885.25
2022-12-11T03:45:36.008Z,100874.72
2022-12-11T03:48:04.599Z,100878.06
2022-12-11T03:50:33.635Z,100880.09
2022-12-11T03:53:02.999Z,100878.28
2022-12-11T03:55:33.832Z,100875.22
2022-12-11T03:58:01.827Z,100874.50
2022-12-11T04:00:30.309Z,100862.25
2022-12-11T04:03:19.274Z,100870.09
2022-12-11T04:05:48.766Z,100869.91
2022-12-11T04:08:18.053Z,100868.97
2022-12-11T04:10:46.170Z,100870.94
2022-12-11T04:13:14.235Z,100868.19
2022-12-11T04:15:41.613Z,100864.28
2022-12-11T04:18:28.629Z,100863.91
2022-12-11T04:21:14.751Z,100865.00
2022-12-11T04:24:14.526Z,100861.44
2022-12-11T04:26:42.914Z,100863.06
2022-12-11T04:29:10.900Z,100858.25
2022-12-11T04:31:38.810Z,100860.63
2022-12-11T04:34:08.186Z,100864.28
2022-12-11T04:36:36.674Z,100858.06
2022-12-11T04:39:05.359Z,100852.13
2022-12-11T04:41:33.319Z,100852.75
2022-12-11T04:44:01.386Z,100857.78
2022-12-11T04:46:29.352Z,100847.00
2022-12-11T04:48:58.059Z,100854.00
2022-12-11T04:51:28.086Z,100851.94
2022-12-11T04:53:56.284Z,100852.19
2022-12-11T04:56:24.215Z,100855.16
2022-12-11T04:58:52.098Z,100852.56
2022-12-11T05:01:23.231Z,100850.03
2022-12-11T05:03:51.742Z,100854.88
2022-12-11T05:06:19.617Z,100852.63
2022-12-11T05:08:48.814Z,100849.19
2022-12-11T05:11:17.527Z,100858.00
2022-12-11T05:13:46.436Z,100846.44
2022-12-11T05:16:16.631Z,100852.88
2022-12-11T05:18:44.928Z,100850.09
2022-12-11T05:21:14.711Z,100848.00
2022-12-11T05:23:42.955Z,100847.78
2022-12-11T05:26:17.041Z,100840.78
2022-12-11T05:28:45.827Z,100842.44
2022-12-11T05:31:15.835Z,100843.75
2022-12-11T05:33:43.895Z,100842.44
2022-12-11T05:36:17.722Z,100842.00
2022-12-11T05:38:45.921Z,100846.91
2022-12-11T05:41:17.172Z,100840.94
2022-12-11T05:43:45.671Z,100838.91
2022-12-11T05:46:16.780Z,100838.91
2022-12-11T05:48:46.127Z,100839.44
2022-12-11T05:51:15.068Z,100836.38
2022-12-11T05:53:44.505Z,100840.72
2022-12-11T05:56:16.515Z,100838.56
2022-12-11T05:58:45.739Z,100838.09
2022-12-11T06:01:16.323Z,100837.28
2022-12-11T06:03:44.708Z,100829.03
2022-12-11T06:06:12.860Z,100840.94
2022-12-11T06:08:40.846Z,100829.66
2022-12-11T06:11:09.013Z,100836.97
2022-12-11T06:13:38.198Z,100832.47
2022-12-11T06:16:08.065Z,100830.47
2022-12-11T06:18:37.945Z,100829.72
2022-12-11T06:21:13.649Z,100830.13
2022-12-11T06:23:42.468Z,100828.66
2022-12-11T06:26:10.736Z,100829.91
2022-12-11T06:28:40.564Z,100831.47
2022-12-11T06:31:08.804Z,100838.16
2022-12-11T06:33:36.958Z,100830.47
2022-12-11T06:36:05.970Z,100832.03
2022-12-11T06:38:33.872Z,100830.41
2022-12-11T06:41:04.848Z,100826.16
2022-12-11T06:43:33.471Z,100827.13
2022-12-11T06:46:04.980Z,100827.38
2022-12-11T06:48:33.168Z,100830.31
2022-12-11T06:51:01.406Z,100835.22
2022-12-11T06:53:29.303Z,100835.78
2022-12-11T06:55:57.177Z,100837.50
2022-12-11T06:58:25.015Z,100835.94
2022-12-11T07:00:52.912Z,100842.25
2022-12-11T07:03:22.157Z,100849.19
2022-12-11T07:05:50.024Z,100834.75
2022-12-11T07:08:17.919Z,100841.84
2022-12-11T07:10:45.796Z,100839.59
2022-12-11T07:13:13.638Z,100839.06
2022-12-11T07:15:41.643Z,100823.47
2022-12-11T07:18:10.772Z,100816.78
2022-12-11T07:20:39.993Z,100825.78
2022-12-11T07:23:07.974Z,100828.06
2022-12-11T07:25:38.028Z,100832.06
2022-12-11T07:28:06.302Z,100835.56
2022-12-11T07:30:35.456Z,100836.44
2022-12-11T07:33:03.398Z,100842.50
2022-12-11T07:35:31.433Z,100853.75
2022-12-11T07:38:00.647Z,100840.84
2022-12-11T07:40:28.713Z,100842.38
2022-12-11T07:42:56.812Z,100833.44
2022-12-11T07:45:26.322Z,100835.78
2022-12-11T07:47:54.265Z,100852.28
2022-12-11T07:50:22.123Z,100852.81
2022-12-11T07:52:50.011Z,100859.31
2022-12-11T07:55:19.398Z,100857.31
2022-12-11T07:57:47.291Z,100845.25
2022-12-11T08:00:15.760Z,100851.03
2022-12-11T08:02:43.676Z,100848.75
2022-12-11T08:05:12.468Z,100849.03
2022-12-11T08:07:41.055Z,100847.25
2022-12-11T08:10:09.436Z,100848.25
2022-12-11T08:12:38.667Z,100841.75
2022-12-11T08:15:07.868Z,100845.78
2022-12-11T08:17:40.062Z,100849.47
2022-12-11T08:20:09.522Z,100852.78
2022-12-11T08:22:37.465Z,100853.97
2022-12-11T08:25:06.016Z,100857.03
2022-12-11T08:27:33.850Z,100856.81
2022-12-11T08:30:03.070Z,100855.63
2022-12-11T08:32:31.090Z,100854.13
2022-12-11T08:34:58.983Z,100863.03
2022-12-11T08:37:26.833Z,100863.59
2022-12-11T08:39:54.683Z,100856.53
2022-12-11T08:42:22.592Z,100865.84
2022-12-11T08:44:51.725Z,100860.88
2022-12-11T08:47:23.052Z,100848.66
2022-12-11T08:49:50.924Z,100852.03
2022-12-11T08:52:18.873Z,100847.53
2022-12-11T08:54:46.744Z,100853.44
2022-12-11T08:57:14.878Z,100857.59
2022-12-11T08:59:42.764Z,100854.91
2022-12-11T09:02:12.579Z,100857.00
2022-12-11T09:04:42.192Z,100852.53
2022-12-11T09:07:10.039Z,100850.19
2022-12-11T09:09:37.914Z,100852.06
2022-12-11T09:12:06.226Z,100858.88
2022-12-11T09:14:34.124Z,100863.59
2022-12-11T09:17:02.084Z,100851.94
2022-12-11T09:19:32.344Z,100847.53
2022-12-11T09:22:01.889Z,100858.44
2022-12-11T09:24:29.991Z,100852.47
2022-12-11T09:26:57.802Z,100859.31
2022-12-11T09:29:25.637Z,100861.50
2022-12-11T09:31:53.514Z,100857.97
2022-12-11T09:34:26.057Z,100857.09
2022-12-11T09:36:57.187Z,100852.94
2022-12-11T09:39:26.622Z,100838.06
2022-12-11T09:42:01.426Z,100843.75
2022-12-11T09:44:36.757Z,100851.28
2022-12-11T09:47:04.704Z,100835.47
2022-12-11T09:49:39.273Z,100843.56
2022-12-11T09:52:19.564Z,100842.13
2022-12-11T09:54:53.745Z,100838.00
2022-12-11T09:57:37.012Z,100827.47
2022-12-11T10:00:16.724Z,100835.78
2022-12-11T10:03:09.180Z,100827.31
2022-12-11T10:05:44.936Z,100819.72
2022-12-11T10:08:20.873Z,100818.75
2022-12-11T10:10:58.544Z,100822.03
2022-12-11T10:13:38.478Z,100823.28
2022-12-11T10:16:19.058Z,100809.38
2022-12-11T10:18:47.733Z,100810.19
2022-12-11T10:21:19.348Z,100806.91
2022-12-11T10:23:54.573Z,100802.53
2022-12-11T10:26:25.052Z,100796.53
2022-12-11T10:28:53.097Z,100796.91
2022-12-11T10:31:27.434Z,100794.28
2022-12-11T10:34:00.831Z,100796.91
2022-12-11T10:36:31.563Z,100788.50
2022-12-11T10:39:00.367Z,100791.09
2022-12-11T10:41:38.988Z,100790.94
2022-12-11T10:44:17.451Z,100781.13
2022-12-11T10:46:46.499Z,100788.47
2022-12-11T10:49:30.039Z,100792.03
2022-12-11T10:52:01.407Z,100784.97
2022-12-11T10:54:33.638Z,100786.00
2022-12-11T10:57:04.678Z,100787.00
2022-12-11T10:59:37.562Z,100791.63
2022-12-11T11:02:08.274Z,100777.66
2022-12-11T11:04:38.803Z,100780.63
2022-12-11T11:07:13.826Z,100780.72
2022-12-11T11:09:42.128Z,100772.91
2022-12-11T11:12:24.325Z,100775.59
2022-12-11T11:15:02.611Z,100779.50
2022-12-11T11:17:35.057Z,100769.25
2022-12-11T11:20:15.415Z,100756.81
2022-12-11T11:22:47.891Z,100763.06
2022-12-11T11:25:21.412Z,100764.78
2022-12-11T11:27:53.874Z,100758.63
2022-12-11T11:30:24.664Z,100755.69
2022-12-11T11:32:55.263Z,100749.56
2022-12-11T11:35:25.670Z,100749.94
2022-12-11T11:38:03.706Z,100740.63
2022-12-11T11:40:36.905Z,100745.56
2022-12-11T11:43:20.060Z,100739.53
2022-12-11T11:45:53.669Z,100738.44
2022-12-11T11:48:36.810Z,100735.59
2022-12-11T11:51:15.864Z,100741.72
2022-12-11T11:53:48.222Z,100734.78
2022-12-11T11:56:23.010Z,100730.94
2022-12-11T11:59:04.162Z,100732.94
2022-12-11T12:01:32.593Z,100734.09
2022-12-11T12:04:02.562Z,100723.31
2022-12-11T12:06:57.256Z,100725.69
2022-12-11T12:09:34.895Z,100729.91
2022-12-11T12:12:13.433Z,100724.34
2022-12-11T12:14:56.041Z,100724.34
2022-12-11T12:17:36.090Z,100719.69
2022-12-11T12:20:14.648Z,100717.72
2022-12-11T12:23:01.438Z,100716.72
2022-12-11T12:25:36.033Z,100720.75
2022-12-11T12:28:17.636Z,100722.38
2022-12-11T12:31:02.700Z,100724.16
2022-12-11T12:33:43.536Z,100724.03
2022-12-11T12:36:21.797Z,100717.78
2022-12-11T12:38:55.303Z,100723.00
2022-12-11T12:41:31.574Z,100725.00
2022-12-11T12:44:13.761Z,100721.72
2022-12-11T12:46:52.654Z,100718.88
2022-12-11T12:49:31.723Z,100712.63
2022-12-11T12:52:01.206Z,100715.69
2022-12-11T12:54:32.010Z,100716.38
2022-12-11T12:57:02.047Z,100715.47
2022-12-11T12:59:29.965Z,100705.53
2022-12-11T13:02:02.774Z,100701.13
2022-12-11T13:07:30.757Z,100694.38
2022-12-11T13:10:06.576Z,100704.75
2022-12-11T13:12:42.592Z,100703.47
2022-12-11T13:15:37.213Z,100709.16
2022-12-11T13:18:34.017Z,100703.69
2022-12-11T13:21:02.796Z,100700.63
2022-12-11T13:23:32.142Z,100706.47
2022-12-11T13:26:01.995Z,100698.56
2022-12-11T13:28:46.707Z,100700.09
2022-12-11T13:31:35.017Z,100696.34
2022-12-11T13:34:17.534Z,100707.16
2022-12-11T13:36:50.123Z,100702.09
2022-12-11T13:39:20.854Z,100702.34
2022-12-11T13:41:53.253Z,100702.72
2022-12-11T13:44:27.124Z,100699.91
2022-12-11T13:46:57.013Z,100703.25
2022-12-11T13:49:29.734Z,100696.53
2022-12-11T13:52:00.277Z,100697.25
2022-12-11T13:54:29.789Z,100692.28
2022-12-11T13:57:01.035Z,100689.22
2022-12-11T13:59:32.729Z,100690.19
2022-12-11T14:02:05.313Z,100691.91
2022-12-11T14:04:35.576Z,100696.47
2022-12-11T14:07:08.170Z,100686.69
2022-12-11T14:09:40.148Z,100703.03
2022-12-11T14:12:08.170Z,100697.22
2022-12-11T14:14:43.242Z,100697.06
2022-12-11T14:17:15.110Z,100694.53
2022-12-11T14:19:48.254Z,100692.06
2022-12-11T14:22:19.753Z,100693.66
2022-12-11T14:24:52.019Z,100693.13
2022-12-11T14:27:20.971Z,100696.69
2022-12-11T14:29:49.231Z,100702.69
2022-12-11T14:32:25.205Z,100687.59
2022-12-11T14:34:56.062Z,100694.25
2022-12-11T14:37:25.923Z,100688.22
2022-12-11T14:40:00.815Z,100681.47
2022-12-11T14:42:32.222Z,100682.97
2022-12-11T14:45:07.927Z,100683.66
2022-12-11T14:47:42.178Z,100683.19
2022-12-11T14:50:19.228Z,100680.25
2022-12-11T14:52:51.960Z,100684.16
2022-12-11T14:55:23.384Z,100693.13
2022-12-11T14:57:56.031Z,100687.72
2022-12-11T15:00:27.079Z,100684.22
2022-12-11T15:03:01.371Z,100692.41
2022-12-11T15:05:35.789Z,100691.22
2022-12-11T15:08:24.706Z,100689.22
2022-12-11T15:11:04.423Z,100690.94
2022-12-11T15:13:34.054Z,100689.13
2022-12-11T15:16:03.282Z,100689.13
2022-12-11T15:18:33.945Z,100691.22
2022-12-11T15:21:07.018Z,100695.53
2022-12-11T15:23:38.526Z,100702.97
2022-12-11T15:26:07.392Z,100708.81
2022-12-11T15:28:37.338Z,100697.28
2022-12-11T15:31:08.546Z,100701.03
2022-12-11T15:33:47.655Z,100692.88
2022-12-11T15:36:26.634Z,100698.09
2022-12-11T15:38:54.538Z,100699.31
2022-12-11T15:41:24.606Z,100703.00
2022-12-11T15:43:58.283Z,100688.16
2022-12-11T15:46:27.281Z,100699.97
2022-12-11T15:48:57.444Z,100691.28
2022-12-11T15:51:27.571Z,100691.78
2022-12-11T15:53:55.518Z,100694.72
2022-12-11T15:56:23.476Z,100684.28
2022-12-11T15:58:51.420Z,100678.88
2022-12-11T16:01:19.296Z,100690.75
2022-12-11T16:03:47.155Z,100694.19
2022-12-11T16:06:15.158Z,100696.69
2022-12-11T16:08:44.457Z,100707.09
2022-12-11T16:11:14.428Z,100710.66
2022-12-11T16:13:42.264Z,100713.22
2022-12-11T16:16:10.141Z,100704.94
2022-12-11T16:18:38.035Z,100709.56
2022-12-11T16:21:06.680Z,100704.28
2022-12-11T16:23:34.555Z,100710.13
2022-12-11T16:26:09.583Z,100704.84
2022-12-11T16:28:37.465Z,100700.31
2022-12-11T16:31:05.382Z,100704.88
2022-12-11T16:33:33.283Z,100696.03
2022-12-11T16:36:01.155Z,100697.34
2022-12-11T16:38:29.166Z,100704.97
2022-12-11T16:41:03.480Z,100708.09
2022-12-11T16:43:33.401Z,100699.72
2022-12-11T16:46:01.304Z,100696.56
2022-12-11T16:48:29.232Z,100696.34
2022-12-11T16:50:58.024Z,100701.75
2022-12-11T16:53:26.152Z,100695.13
2022-12-11T16:55:54.067Z,100695.28
2022-12-11T16:58:21.964Z,100697.72
2022-12-11T17:00:51.281Z,100690.88
2022-12-11T17:03:20.110Z,100693.19
2022-12-11T17:05:48.299Z,100695.22
2022-12-11T17:08:16.134Z,100696.31
2022-12-11T17:10:44.072Z,100693.38
2022-12-11T17:13:11.901Z,100688.16
2022-12-11T17:15:41.621Z,100687.19
2022-12-11T17:18:11.821Z,100692.03
2022-12-11T17:20:41.727Z,100693.38
2022-12-11T17:23:10.636Z,100693.75
2022-12-11T17:25:41.910Z,100682.47
2022-12-11T17:28:10.133Z,100683.56
2022-12-11T17:30:41.882Z,100680.19
2022-12-11T17:33:11.221Z,100687.25
2022-12-11T17:35:39.654Z,100680.47
2022-12-11T17:38:07.716Z,100674.47
2022-12-11T17:40:35.608Z,100686.28
2022-12-11T17:43:06.346Z,100682.06
2022-12-11T17:45:34.807Z,100692.59
2022-12-11T17:48:02.714Z,100688.81
2022-12-11T17:50:32.043Z,100683.09
2022-12-11T17:52:59.889Z,100688.00
2022-12-11T17:55:27.787Z,100689.13
2022-12-11T17:57:55.709Z,100686.34
2022-12-11T18:00:24.588Z,100687.06
2022-12-11T18:02:54.311Z,100693.94
2022-12-11T18:05:22.196Z,100681.84
2022-12-11T18:07:56.014Z,100688.66
2022-12-11T18:10:25.750Z,100695.06
2022-12-11T18:12:54.161Z,100681.59
2022-12-11T18:15:21.999Z,100682.31
2022-12-11T18:17:49.867Z,100679.88
2022-12-11T18:20:17.860Z,100686.88
2022-12-11T18:22:45.739Z,100691.16
2022-12-11T18:25:15.421Z,100685.75
2022-12-11T18:27:43.970Z,100685.75
2022-12-11T18:30:14.172Z,100681.25
2022-12-11T18:32:42.479Z,100688.00
2022-12-11T18:35:11.686Z,100687.84
2022-12-11T18:37:41.164Z,100689.97
2022-12-11T18:40:10.667Z,100682.72
2022-12-11T18:42:39.946Z,100699.25
2022-12-11T18:45:09.213Z,100701.50
2022-12-11T18:47:38.001Z,100692.16
2022-12-11T18:50:08.199Z,100691.41
2022-12-11T18:52:36.277Z,100695.38
2022-12-11T18:55:04.316Z,100694.84
2022-12-11T18:57:32.441Z,100687.56
2022-12-11T19:00:07.095Z,100691.13
2022-12-11T19:02:35.505Z,100683.09
2022-12-11T19:05:03.929Z,100680.94
2022-12-11T19:07:31.983Z,100680.75
2022-12-11T19:09:59.925Z,100684.09
2022-12-11T19:12:27.849Z,100677.16
2022-12-11T19:14:55.748Z,100680.75
2022-12-11T19:17:25.004Z,100677.16
2022-12-11T19:19:53.267Z,100680.47
2022-12-11T19:22:21.304Z,100679.16
2022-12-11T19:24:49.169Z,100682.78
2022-12-11T19:27:17.022Z,100688.56
2022-12-11T19:29:44.917Z,100690.34
2022-12-11T19:32:12.811Z,100686.47
2022-12-11T19:34:42.053Z,100691.13
2022-12-11T19:37:10.131Z,100684.53
2022-12-11T19:39:40.534Z,100692.25
2022-12-11T19:42:08.461Z,100693.41
2022-12-11T19:44:36.346Z,100692.97
2022-12-11T19:47:04.446Z,100696.69
2022-12-11T19:49:32.635Z,100703.38
2022-12-11T19:52:01.856Z,100696.28
2022-12-11T19:54:29.732Z,100694.25
2022-12-11T19:56:57.619Z,100693.47
2022-12-11T19:59:25.705Z,100692.72
2022-12-11T20:01:53.686Z,100695.19
2022-12-11T20:04:21.605Z,100689.41
2022-12-11T20:06:49.570Z,100702.22
2022-12-11T20:09:18.977Z,100687.41
2022-12-11T20:11:48.426Z,100691.00
2022-12-11T20:14:21.020Z,100689.38
2022-12-11T20:19:37.210Z,100693.47
2022-12-11T20:22:05.605Z,100685.75
2022-12-11T20:24:34.876Z,100692.97
2022-12-11T20:27:02.762Z,100692.59
2022-12-11T20:29:30.895Z,100688.03
2022-12-11T20:32:00.473Z,100687.38
2022-12-11T20:34:28.957Z,100687.94
2022-12-11T20:36:57.076Z,100687.56
2022-12-11T20:39:25.264Z,100692.06
2022-12-11T20:41:54.617Z,100693.13
2022-12-11T20:44:22.499Z,100690.91
2022-12-11T20:46:50.711Z,100684.03
2022-12-11T20:49:18.597Z,100691.81
2022-12-11T20:51:46.433Z,100694.63
2022-12-11T20:54:14.459Z,100691.28
2022-12-11T20:56:43.453Z,100696.44
2022-12-11T20:59:13.356Z,100687.53
2022-12-11T21:01:41.704Z,100695.88
2022-12-11T21:04:09.866Z,100691.22
2022-12-11T21:06:40.538Z,100693.00
2022-12-11T21:09:13.114Z,100696.91
2022-12-11T21:11:41.276Z,100692.66
2022-12-11T21:14:09.183Z,100687.34
2022-12-11T21:16:38.865Z,100687.34
2022-12-11T21:19:10.124Z,100684.03
2022-12-11T21:21:40.495Z,100688.13
2022-12-11T21:24:10.096Z,100689.31
2022-12-11T21:26:38.175Z,100688.53
2022-12-11T21:29:06.275Z,100693.13
2022-12-11T21:31:34.321Z,100688.25
2022-12-11T21:34:03.895Z,100692.09
2022-12-11T21:36:32.243Z,100693.06
2022-12-11T21:39:00.978Z,100699.19
2022-12-11T21:41:28.990Z,100699.66
2022-12-11T21:46:45.844Z,100692.44
2022-12-11T21:49:15.038Z,100693.13
2022-12-11T21:51:47.095Z,100694.91
2022-12-11T21:54:19.796Z,100682.47
2022-12-11T21:56:48.142Z,100681.44
2022-12-11T21:59:16.156Z,100675.31
2022-12-11T22:01:46.191Z,100679.81
2022-12-11T22:04:16.671Z,100679.44
2022-12-11T22:06:47.281Z,100677.03
2022-12-11T22:09:16.569Z,100673.47
2022-12-11T22:11:45.218Z,100668.38
2022-12-11T22:14:14.502Z,100678.75
2022-12-11T22:16:42.864Z,100676.63
2022-12-11T22:19:11.205Z,100670.84
2022-12-11T22:21:40.801Z,100665.66
2022-12-11T22:24:08.984Z,100673.69
2022-12-11T22:26:36.872Z,100658.25
2022-12-11T22:29:04.811Z,100669.34
2022-12-11T22:31:33.010Z,100668.72
2022-12-11T22:34:01.029Z,100664.72
2022-12-11T22:36:28.952Z,100663.97
2022-12-11T22:38:58.168Z,100670.66
2022-12-11T22:41:28.333Z,100671.81
2022-12-11T22:43:56.703Z,100662.13
2022-12-11T22:46:26.507Z,100666.81
2022-12-11T22:48:54.909Z,100673.06
2022-12-11T22:51:23.524Z,100674.00
2022-12-11T22:53:51.786Z,100688.38
2022-12-11T22:56:21.183Z,100683.25
2022-12-11T22:58:49.149Z,100682.19
2022-12-11T23:01:20.103Z,100688.31
2022-12-11T23:03:48.957Z,100680.59
2022-12-11T23:06:18.943Z,100686.84
2022-12-11T23:08:47.012Z,100677.84
2022-12-11T23:11:17.800Z,100678.00
2022-12-11T23:13:47.373Z,100684.03
2022-12-11T23:16:16.085Z,100678.75
2022-12-11T23:18:44.331Z,100693.13
2022-12-11T23:21:13.173Z,100691.53
2022-12-11T23:23:41.362Z,100696.44
2022-12-11T23:26:11.392Z,100699.03
2022-12-11T23:28:40.342Z,100689.91
2022-12-11T23:31:10.206Z,100684.41
2022-12-11T23:33:38.533Z,100692.94
2022-12-11T23:36:07.411Z,100698.22
2022-12-11T23:38:35.478Z,100704.47
2022-12-11T23:41:04.845Z,100695.69
2022-12-11T23:43:33.253Z,100682.72
2022-12-11T23:46:01.141Z,100690.22
2022-12-11T23:48:31.153Z,100683.69
2022-12-11T23:51:00.707Z,100688.25
2022-12-11T23:53:28.831Z,100693.53
2022-12-11T23:55:56.754Z,100681.06
2022-12-11T23:58:24.606Z,100688.94
